createdAt,value
2023-04-25T00:00:39.945Z,11.18
2023-04-25T00:03:10.250Z,11.18
2023-04-25T00:05:40.141Z,11.12
2023-04-25T00:08:09.561Z,11.21
2023-04-25T00:10:38.780Z,11.30
2023-04-25T00:13:07.514Z,11.46
2023-04-25T00:15:37.127Z,11.55
2023-04-25T00:18:08.069Z,11.64
2023-04-25T00:20:38.006Z,11.65
2023-04-25T00:23:07.713Z,11.70
2023-04-25T00:25:36.402Z,11.65
2023-04-25T00:28:05.665Z,11.63
2023-04-25T00:30:34.521Z,11.58
2023-04-25T00:33:03.462Z,11.50
2023-04-25T00:35:33.755Z,11.47
2023-04-25T00:38:02.887Z,11.36
2023-04-25T00:40:31.856Z,11.36
2023-04-25T00:43:00.549Z,11.24
2023-04-25T00:45:31.557Z,11.20
2023-04-25T00:48:00.683Z,11.13
2023-04-25T00:50:29.432Z,10.97
2023-04-25T00:52:59.594Z,10.94
2023-04-25T00:55:29.969Z,10.91
2023-04-25T00:57:58.781Z,10.78
2023-04-25T01:00:27.768Z,10.76
2023-04-25T01:02:56.696Z,10.68
2023-04-25T01:05:25.802Z,10.64
2023-04-25T01:07:54.641Z,10.60
2023-04-25T01:10:25.178Z,10.60
2023-04-25T01:12:54.545Z,10.59
2023-04-25T01:15:23.367Z,10.57
2023-04-25T01:17:52.359Z,10.60
2023-04-25T01:20:24.431Z,10.60
2023-04-25T01:22:56.122Z,10.59
2023-04-25T01:25:25.543Z,10.55
2023-04-25T01:27:54.766Z,10.59
2023-04-25T01:30:23.867Z,10.51
2023-04-25T01:32:54.718Z,10.51
2023-04-25T01:35:25.000Z,10.50
2023-04-25T01:37:58.012Z,10.54
2023-04-25T01:40:27.441Z,10.55
2023-04-25T01:42:57.040Z,10.61
2023-04-25T01:45:26.218Z,10.67
2023-04-25T01:47:56.155Z,10.70
2023-04-25T01:50:25.140Z,10.78
2023-04-25T01:52:55.051Z,10.87
2023-04-25T01:55:25.337Z,10.95
2023-04-25T01:58:14.046Z,11.10
2023-04-25T02:01:11.830Z,11.08
2023-04-25T02:03:49.409Z,11.18
2023-04-25T02:06:28.134Z,11.21
2023-04-25T02:08:59.251Z,11.27
2023-04-25T02:11:29.338Z,11.33
2023-04-25T02:14:36.690Z,11.43
2023-04-25T02:17:15.902Z,11.46
2023-04-25T02:19:44.680Z,11.48
2023-04-25T02:22:13.533Z,11.49
2023-04-25T02:24:42.329Z,11.50
2023-04-25T02:27:12.432Z,11.55
2023-04-25T02:29:41.214Z,11.52
2023-04-25T02:32:12.312Z,11.54
2023-04-25T02:34:41.193Z,11.52
2023-04-25T02:37:09.898Z,11.56
2023-04-25T02:39:38.589Z,11.55
2023-04-25T02:42:07.319Z,11.59
2023-04-25T02:44:37.361Z,11.62
2023-04-25T02:47:07.829Z,11.66
2023-04-25T02:49:36.631Z,11.71
2023-04-25T02:52:06.688Z,11.68
2023-04-25T02:54:35.582Z,11.70
2023-04-25T02:57:05.475Z,11.72
2023-04-25T02:59:39.766Z,11.73
2023-04-25T03:02:08.531Z,11.82
2023-04-25T03:04:37.250Z,11.87
2023-04-25T03:07:07.116Z,11.87
2023-04-25T03:09:36.102Z,11.90
2023-04-25T03:12:05.888Z,11.94
2023-04-25T03:14:35.925Z,11.97
2023-04-25T03:17:06.094Z,12.01
2023-04-25T03:19:37.502Z,12.06
2023-04-25T03:22:06.290Z,12.10
2023-04-25T03:24:35.110Z,12.20
2023-04-25T03:27:03.994Z,12.16
2023-04-25T03:29:32.710Z,12.25
2023-04-25T03:32:06.797Z,12.29
2023-04-25T03:34:35.856Z,12.36
2023-04-25T03:37:04.681Z,12.46
2023-04-25T03:39:38.705Z,12.48
2023-04-25T03:42:08.953Z,12.53
2023-04-25T03:44:37.724Z,12.58
2023-04-25T03:47:08.656Z,12.59
2023-04-25T03:49:37.948Z,12.62
2023-04-25T03:52:11.583Z,12.70
2023-04-25T03:54:43.102Z,12.79
2023-04-25T03:57:18.677Z,12.89
2023-04-25T03:59:47.549Z,12.89
2023-04-25T04:02:20.601Z,12.94
2023-04-25T04:04:49.991Z,13.00
2023-04-25T04:07:19.202Z,13.04
2023-04-25T04:09:50.130Z,13.11
2023-04-25T04:12:26.927Z,13.22
2023-04-25T04:14:55.721Z,13.27
2023-04-25T04:17:26.308Z,13.31
2023-04-25T04:19:55.043Z,13.40
2023-04-25T04:22:24.138Z,13.46
2023-04-25T04:24:55.334Z,13.41
2023-04-25T04:27:41.645Z,13.55
2023-04-25T04:30:38.658Z,13.59
2023-04-25T04:33:12.382Z,13.69
2023-04-25T04:35:42.605Z,13.78
2023-04-25T04:38:12.927Z,13.82
2023-04-25T04:40:42.047Z,13.93
2023-04-25T04:43:18.210Z,13.97
2023-04-25T04:46:13.845Z,14.07
2023-04-25T04:48:57.589Z,14.11
2023-04-25T04:51:58.395Z,14.27
2023-04-25T04:54:54.619Z,14.32
2023-04-25T04:57:49.959Z,14.41
2023-04-25T05:00:51.120Z,14.64
2023-04-25T05:03:43.333Z,14.78
2023-04-25T05:06:36.543Z,14.98
2023-04-25T05:09:26.730Z,15.05
2023-04-25T05:12:25.405Z,15.14
2023-04-25T05:15:13.162Z,15.20
2023-04-25T05:18:02.694Z,15.32
2023-04-25T05:20:43.981Z,15.36
2023-04-25T05:23:39.854Z,15.55
2023-04-25T05:26:26.948Z,15.83
2023-04-25T05:29:03.560Z,16.00
2023-04-25T05:31:40.877Z,16.18
2023-04-25T05:34:17.711Z,16.38
2023-04-25T05:37:01.902Z,16.55
2023-04-25T05:39:33.077Z,16.67
2023-04-25T05:42:20.543Z,16.72
2023-04-25T05:44:55.722Z,16.81
2023-04-25T05:47:44.654Z,16.83
2023-04-25T05:50:28.860Z,16.93
2023-04-25T05:53:03.654Z,16.98
2023-04-25T05:55:36.236Z,17.01
2023-04-25T05:58:18.770Z,17.14
2023-04-25T06:00:48.004Z,17.26
2023-04-25T06:03:20.214Z,17.42
2023-04-25T06:05:49.832Z,17.61
2023-04-25T06:08:18.934Z,17.82
2023-04-25T06:10:48.995Z,17.87
2023-04-25T06:13:17.653Z,18.04
2023-04-25T06:15:46.422Z,18.17
2023-04-25T06:18:15.150Z,18.37
2023-04-25T06:20:43.982Z,18.56
2023-04-25T06:23:13.284Z,18.70
2023-04-25T06:25:56.214Z,18.90
2023-04-25T06:28:25.519Z,18.88
2023-04-25T06:30:54.349Z,18.93
2023-04-25T06:33:23.397Z,18.89
2023-04-25T06:35:52.520Z,18.85
2023-04-25T06:38:26.070Z,18.84
2023-04-25T06:40:57.173Z,18.78
2023-04-25T06:43:25.992Z,18.82
2023-04-25T06:46:13.535Z,18.79
2023-04-25T06:48:46.835Z,18.77
2023-04-25T06:51:15.634Z,18.78
2023-04-25T06:53:45.067Z,18.77
2023-04-25T06:56:24.392Z,18.79
2023-04-25T06:59:01.475Z,18.74
2023-04-25T07:01:33.482Z,18.83
2023-04-25T07:04:06.306Z,18.79
2023-04-25T07:06:39.157Z,18.82
2023-04-25T07:09:08.184Z,18.88
2023-04-25T07:11:38.431Z,18.90
2023-04-25T07:14:07.289Z,18.98
2023-04-25T07:16:36.745Z,19.08
2023-04-25T07:19:05.727Z,19.19
2023-04-25T07:21:37.485Z,19.22
2023-04-25T07:24:08.975Z,19.27
2023-04-25T07:26:43.430Z,19.35
2023-04-25T07:29:41.329Z,19.35
2023-04-25T07:32:11.432Z,19.47
2023-04-25T07:34:42.547Z,19.58
2023-04-25T07:37:12.009Z,19.69
2023-04-25T07:39:53.408Z,19.77
2023-04-25T07:42:23.624Z,19.86
2023-04-25T07:44:52.831Z,19.86
2023-04-25T07:47:21.587Z,19.84
2023-04-25T07:49:51.335Z,19.87
2023-04-25T07:52:20.310Z,19.97
2023-04-25T07:54:54.625Z,20.01
2023-04-25T07:57:32.009Z,20.10
2023-04-25T08:00:01.141Z,20.12
2023-04-25T08:02:34.986Z,20.17
2023-04-25T08:05:04.061Z,20.18
2023-04-25T08:07:33.029Z,20.23
2023-04-25T08:10:07.437Z,20.19
2023-04-25T08:12:37.977Z,20.25
2023-04-25T08:15:10.206Z,20.28
2023-04-25T08:17:41.913Z,20.31
2023-04-25T08:20:12.706Z,20.36
2023-04-25T08:22:43.011Z,20.43
2023-04-25T08:25:33.845Z,20.57
2023-04-25T08:28:08.816Z,20.61
2023-04-25T08:30:37.700Z,20.64
2023-04-25T08:33:07.713Z,20.71
2023-04-25T08:35:49.897Z,20.77
2023-04-25T08:38:20.751Z,20.84
2023-04-25T08:40:53.174Z,20.91
2023-04-25T08:43:27.205Z,20.96
2023-04-25T08:45:57.115Z,20.97
2023-04-25T08:48:39.438Z,21.04
2023-04-25T08:51:11.413Z,21.07
2023-04-25T08:53:43.915Z,21.12
2023-04-25T08:56:15.394Z,21.15
2023-04-25T08:58:47.079Z,21.16
2023-04-25T09:01:16.064Z,21.19
2023-04-25T09:03:51.787Z,21.17
2023-04-25T09:06:22.006Z,21.03
2023-04-25T09:08:52.782Z,20.95
2023-04-25T09:11:23.506Z,20.90
2023-04-25T09:14:14.550Z,21.03
2023-04-25T09:17:03.566Z,21.21
2023-04-25T09:19:46.399Z,21.41
2023-04-25T09:22:37.384Z,21.51
2023-04-25T09:25:11.618Z,21.45
2023-04-25T09:27:53.232Z,21.40
2023-04-25T09:30:35.056Z,21.36
2023-04-25T09:33:33.501Z,21.45
2023-04-25T09:36:09.497Z,21.64
2023-04-25T09:38:53.924Z,21.94
2023-04-25T09:41:33.677Z,21.99
2023-04-25T09:44:04.585Z,22.08
2023-04-25T09:46:39.157Z,22.12
2023-04-25T09:49:13.029Z,22.14
2023-04-25T09:52:01.895Z,22.04
2023-04-25T09:54:40.004Z,22.16
2023-04-25T09:57:25.038Z,22.16
2023-04-25T09:59:56.966Z,22.26
2023-04-25T10:02:29.970Z,22.45
2023-04-25T10:05:10.150Z,22.61
2023-04-25T10:07:43.724Z,22.60
2023-04-25T10:10:19.625Z,22.60
2023-04-25T10:12:48.824Z,22.61
2023-04-25T10:15:17.933Z,22.65
2023-04-25T10:17:48.300Z,22.68
2023-04-25T10:20:17.167Z,22.59
2023-04-25T10:22:49.900Z,22.58
2023-04-25T10:25:19.480Z,22.60
2023-04-25T10:27:48.379Z,22.55
2023-04-25T10:30:17.634Z,22.40
2023-04-25T10:32:51.568Z,22.39
2023-04-25T10:35:26.950Z,22.40
2023-04-25T10:38:12.148Z,22.66
2023-04-25T10:40:40.810Z,22.87
2023-04-25T10:43:40.949Z,22.82
2023-04-25T10:46:18.465Z,22.74
2023-04-25T10:48:51.526Z,22.67
2023-04-25T10:51:24.534Z,22.57
2023-04-25T10:54:02.182Z,22.45
2023-04-25T10:56:33.632Z,22.39
2023-04-25T10:59:11.473Z,22.57
2023-04-25T11:01:45.261Z,22.77
2023-04-25T11:04:27.169Z,22.96
2023-04-25T11:07:10.025Z,22.86
2023-04-25T11:09:42.071Z,22.80
2023-04-25T11:12:13.217Z,22.75
2023-04-25T11:14:42.140Z,22.95
2023-04-25T11:17:11.952Z,23.13
2023-04-25T11:19:42.009Z,23.33
2023-04-25T11:22:12.929Z,23.28
2023-04-25T11:24:41.914Z,23.24
2023-04-25T11:27:11.235Z,23.38
2023-04-25T11:29:40.081Z,23.22
2023-04-25T11:32:09.083Z,23.03
2023-04-25T11:34:37.876Z,23.01
2023-04-25T11:37:08.252Z,22.86
2023-04-25T11:39:37.098Z,22.77
2023-04-25T11:42:13.880Z,22.71
2023-04-25T11:44:43.239Z,22.79
2023-04-25T11:47:12.070Z,22.99
2023-04-25T11:49:40.868Z,23.29
2023-04-25T11:52:11.048Z,23.60
2023-04-25T11:54:39.989Z,23.82
2023-04-25T11:57:08.706Z,24.10
2023-04-25T11:59:37.564Z,24.12
2023-04-25T12:02:08.110Z,24.18
2023-04-25T12:04:37.276Z,24.33
2023-04-25T12:07:06.380Z,24.36
2023-04-25T12:09:36.538Z,24.33
2023-04-25T12:12:06.987Z,23.98
2023-04-25T12:14:37.785Z,23.79
2023-04-25T12:17:09.358Z,23.57
2023-04-25T12:19:41.683Z,23.47
2023-04-25T12:22:23.487Z,23.39
2023-04-25T12:24:55.063Z,23.43
2023-04-25T12:27:24.024Z,23.50
2023-04-25T12:29:55.056Z,23.45
2023-04-25T12:32:24.785Z,23.31
2023-04-25T12:34:53.502Z,23.40
2023-04-25T12:37:22.196Z,23.36
2023-04-25T12:39:50.851Z,23.38
2023-04-25T12:42:21.027Z,23.53
2023-04-25T12:44:49.614Z,23.88
2023-04-25T12:47:18.302Z,24.10
2023-04-25T12:49:47.063Z,24.23
2023-04-25T12:52:18.164Z,24.36
2023-04-25T12:54:47.256Z,24.34
2023-04-25T12:57:17.325Z,24.20
2023-04-25T12:59:47.702Z,23.98
2023-04-25T13:02:17.131Z,23.82
2023-04-25T13:04:46.622Z,23.92
2023-04-25T13:07:17.122Z,24.00
2023-04-25T13:09:47.383Z,24.09
2023-04-25T13:12:17.680Z,24.20
2023-04-25T13:15:14.174Z,24.25
2023-04-25T13:17:44.541Z,24.20
2023-04-25T13:20:14.822Z,24.08
2023-04-25T13:22:46.735Z,23.95
2023-04-25T13:25:15.478Z,23.93
2023-04-25T13:27:45.341Z,24.04
2023-04-25T13:30:15.988Z,23.80
2023-04-25T13:32:44.941Z,23.61
2023-04-25T13:35:16.319Z,23.47
2023-04-25T13:37:45.106Z,23.32
2023-04-25T13:40:14.158Z,23.27
2023-04-25T13:42:43.099Z,23.22
2023-04-25T13:45:12.075Z,23.15
2023-04-25T13:47:42.230Z,23.20
2023-04-25T13:50:12.163Z,23.27
2023-04-25T13:52:40.827Z,23.27
2023-04-25T13:55:10.653Z,23.24
2023-04-25T13:57:44.032Z,23.27
2023-04-25T14:00:34.009Z,23.31
2023-04-25T14:03:08.202Z,23.55
2023-04-25T14:05:40.490Z,23.71
2023-04-25T14:08:18.920Z,23.78
2023-04-25T14:10:52.244Z,23.84
2023-04-25T14:13:21.044Z,23.99
2023-04-25T14:15:51.345Z,23.94
2023-04-25T14:18:21.883Z,23.81
2023-04-25T14:20:54.228Z,23.83
2023-04-25T14:23:23.396Z,23.64
2023-04-25T14:25:52.213Z,23.60
2023-04-25T14:28:22.827Z,23.48
2023-04-25T14:30:52.582Z,23.53
2023-04-25T14:33:29.157Z,23.66
2023-04-25T14:35:57.893Z,23.82
2023-04-25T14:38:47.755Z,23.80
2023-04-25T14:41:26.041Z,24.04
2023-04-25T14:43:55.678Z,24.02
2023-04-25T14:46:25.011Z,23.93
2023-04-25T14:48:56.945Z,23.78
2023-04-25T14:51:27.542Z,23.54
2023-04-25T14:53:56.625Z,23.24
2023-04-25T14:56:25.376Z,23.02
2023-04-25T14:58:54.076Z,23.24
2023-04-25T15:01:22.965Z,23.50
2023-04-25T15:03:52.787Z,23.79
2023-04-25T15:06:23.183Z,24.20
2023-04-25T15:08:51.960Z,24.56
2023-04-25T15:11:21.429Z,24.84
2023-04-25T15:13:50.488Z,24.92
2023-04-25T15:16:19.520Z,24.96
2023-04-25T15:18:48.254Z,25.20
2023-04-25T15:21:16.983Z,25.21
2023-04-25T15:23:47.071Z,25.26
2023-04-25T15:26:15.831Z,25.29
2023-04-25T15:28:44.475Z,25.34
2023-04-25T15:31:13.410Z,25.50
2023-04-25T15:33:42.053Z,25.63
2023-04-25T15:36:11.421Z,25.81
2023-04-25T15:38:40.532Z,25.94
2023-04-25T15:41:10.783Z,26.08
2023-04-25T15:43:40.437Z,26.18
2023-04-25T15:46:09.468Z,26.44
2023-04-25T15:48:39.129Z,26.48
2023-04-25T15:51:08.013Z,26.39
2023-04-25T15:53:36.673Z,26.41
2023-04-25T15:56:05.769Z,26.40
2023-04-25T15:58:36.273Z,26.35
2023-04-25T16:01:05.993Z,26.27
2023-04-25T16:03:36.313Z,26.32
2023-04-25T16:06:06.161Z,26.27
2023-04-25T16:08:36.038Z,26.13
2023-04-25T16:11:05.446Z,26.17
2023-04-25T16:13:35.965Z,26.18
2023-04-25T16:16:04.806Z,26.30
2023-04-25T16:18:35.443Z,26.19
2023-04-25T16:21:05.073Z,26.18
2023-04-25T16:23:34.466Z,26.17
2023-04-25T16:26:03.367Z,26.22
2023-04-25T16:28:32.244Z,26.16
2023-04-25T16:31:02.454Z,25.97
2023-04-25T16:33:31.271Z,26.03
2023-04-25T16:36:00.204Z,26.00
2023-04-25T16:38:28.919Z,26.04
2023-04-25T16:40:57.633Z,25.97
2023-04-25T16:43:26.799Z,25.90
2023-04-25T16:45:56.037Z,25.82
2023-04-25T16:48:26.164Z,25.73
2023-04-25T16:50:55.601Z,25.47
2023-04-25T16:53:28.506Z,25.31
2023-04-25T16:55:59.346Z,25.11
2023-04-25T16:58:29.060Z,24.91
2023-04-25T17:00:57.962Z,24.68
2023-04-25T17:03:28.556Z,24.25
2023-04-25T17:05:57.893Z,23.69
2023-04-25T17:08:26.785Z,23.29
2023-04-25T17:10:55.906Z,22.94
2023-04-25T17:13:31.011Z,22.60
2023-04-25T17:16:01.235Z,22.20
2023-04-25T17:18:31.757Z,21.88
2023-04-25T17:21:02.232Z,21.65
2023-04-25T17:23:32.536Z,21.45
2023-04-25T17:26:01.557Z,21.25
2023-04-25T17:28:30.637Z,21.09
2023-04-25T17:30:59.686Z,20.82
2023-04-25T17:33:28.783Z,20.68
2023-04-25T17:35:58.945Z,20.45
2023-04-25T17:38:27.770Z,20.38
2023-04-25T17:40:56.487Z,20.24
2023-04-25T17:43:26.677Z,20.12
2023-04-25T17:45:55.678Z,20.04
2023-04-25T17:48:24.462Z,19.91
2023-04-25T17:50:53.328Z,19.73
2023-04-25T17:53:23.873Z,19.63
2023-04-25T17:55:52.644Z,19.54
2023-04-25T17:58:21.620Z,19.39
2023-04-25T18:00:50.446Z,19.26
2023-04-25T18:03:19.309Z,19.14
2023-04-25T18:05:48.038Z,19.03
2023-04-25T18:08:16.720Z,18.91
2023-04-25T18:10:46.901Z,18.79
2023-04-25T18:13:15.788Z,18.67
2023-04-25T18:15:44.641Z,18.61
2023-04-25T18:18:20.004Z,18.57
2023-04-25T18:20:48.705Z,18.52
2023-04-25T18:23:17.371Z,18.47
2023-04-25T18:25:47.445Z,18.40
2023-04-25T18:28:16.056Z,18.31
2023-04-25T18:30:44.777Z,18.30
2023-04-25T18:33:13.636Z,18.22
2023-04-25T18:35:51.442Z,18.17
2023-04-25T18:41:13.073Z,17.93
2023-04-25T18:43:48.823Z,17.87
2023-04-25T18:46:17.762Z,17.75
2023-04-25T18:48:46.517Z,17.67
2023-04-25T18:51:15.518Z,17.63
2023-04-25T18:53:44.608Z,17.51
2023-04-25T18:56:15.331Z,17.42
2023-04-25T18:58:44.207Z,17.32
2023-04-25T19:01:13.517Z,17.29
2023-04-25T19:03:42.474Z,17.24
2023-04-25T19:06:11.489Z,17.21
2023-04-25T19:08:40.224Z,17.11
2023-04-25T19:11:20.590Z,17.07
2023-04-25T19:13:56.806Z,16.99
2023-04-25T19:16:26.594Z,16.88
2023-04-25T19:18:57.766Z,16.88
2023-04-25T19:21:27.200Z,16.84
2023-04-25T19:23:56.570Z,16.76
2023-04-25T19:26:25.667Z,16.72
2023-04-25T19:29:08.321Z,16.69
2023-04-25T19:31:39.690Z,16.69
2023-04-25T19:34:10.170Z,16.70
2023-04-25T19:36:40.841Z,16.66
2023-04-25T19:39:11.184Z,16.61
2023-04-25T19:41:40.598Z,16.56
2023-04-25T19:44:11.096Z,16.49
2023-04-25T19:46:40.106Z,16.43
2023-04-25T19:49:11.130Z,16.39
2023-04-25T19:51:39.895Z,16.41
2023-04-25T19:54:15.916Z,16.34
2023-04-25T19:56:44.795Z,16.24
2023-04-25T19:59:14.767Z,16.20
2023-04-25T20:01:43.426Z,16.14
2023-04-25T20:04:12.610Z,16.14
2023-04-25T20:06:41.299Z,16.13
2023-04-25T20:09:10.266Z,16.07
2023-04-25T20:11:39.064Z,16.03
2023-04-25T20:14:07.751Z,15.96
2023-04-25T20:16:38.168Z,15.86
2023-04-25T20:19:07.651Z,15.87
2023-04-25T20:21:36.404Z,15.83
2023-04-25T20:24:06.110Z,15.89
2023-04-25T20:26:34.807Z,15.81
2023-04-25T20:29:04.175Z,15.78
2023-04-25T20:31:36.810Z,15.78
2023-04-25T20:34:07.139Z,15.79
2023-04-25T20:36:35.997Z,15.75
2023-04-25T20:39:04.750Z,15.71
2023-04-25T20:41:33.508Z,15.61
2023-04-25T20:44:03.027Z,15.53
2023-04-25T20:46:31.833Z,15.51
2023-04-25T20:49:02.878Z,15.45
2023-04-25T20:51:33.402Z,15.41
2023-04-25T20:54:03.886Z,15.37
2023-04-25T20:56:32.932Z,15.36
2023-04-25T20:59:01.689Z,15.33
2023-04-25T21:01:30.768Z,15.32
2023-04-25T21:04:00.578Z,15.30
2023-04-25T21:06:29.597Z,15.32
2023-04-25T21:08:59.605Z,15.30
2023-04-25T21:11:29.017Z,15.35
2023-04-25T21:13:57.878Z,15.35
2023-04-25T21:16:26.618Z,15.34
2023-04-25T21:18:55.286Z,15.32
2023-04-25T21:21:23.950Z,15.32
2023-04-25T21:23:52.633Z,15.36
2023-04-25T21:26:23.105Z,15.35
2023-04-25T21:28:52.025Z,15.35
2023-04-25T21:31:20.987Z,15.39
2023-04-25T21:33:49.766Z,15.41
2023-04-25T21:36:18.564Z,15.41
2023-04-25T21:38:47.414Z,15.36
2023-04-25T21:41:16.281Z,15.36
2023-04-25T21:43:46.388Z,15.33
2023-04-25T21:46:23.540Z,15.34
2023-04-25T21:48:53.441Z,15.32
2023-04-25T21:51:22.852Z,15.34
2023-04-25T21:53:51.727Z,15.32
2023-04-25T21:56:21.051Z,15.33
2023-04-25T21:58:53.056Z,15.32
2023-04-25T22:01:22.246Z,15.29
2023-04-25T22:03:51.292Z,15.29
2023-04-25T22:06:20.167Z,15.29
2023-04-25T22:08:48.911Z,15.28
2023-04-25T22:11:17.680Z,15.19
2023-04-25T22:13:47.239Z,15.20
2023-04-25T22:16:17.496Z,15.14
2023-04-25T22:18:46.659Z,15.15
2023-04-25T22:21:15.347Z,15.17
2023-04-25T22:23:44.088Z,15.09
2023-04-25T22:26:13.368Z,15.07
2023-04-25T22:28:42.090Z,15.03
2023-04-25T22:31:10.898Z,15.00
2023-04-25T22:33:40.963Z,14.95
2023-04-25T22:36:10.165Z,14.99
2023-04-25T22:38:40.850Z,14.95
2023-04-25T22:41:09.528Z,14.89
2023-04-25T22:43:40.146Z,14.92
2023-04-25T22:46:17.122Z,14.90
2023-04-25T22:48:48.900Z,14.90
2023-04-25T22:51:17.768Z,14.88
2023-04-25T22:53:46.438Z,14.85
2023-04-25T22:56:15.587Z,14.87
2023-04-25T22:58:44.407Z,14.83
2023-04-25T23:01:13.118Z,14.85
2023-04-25T23:03:41.883Z,14.80
2023-04-25T23:06:13.320Z,14.78
2023-04-25T23:08:42.046Z,14.76
2023-04-25T23:11:10.892Z,14.71
2023-04-25T23:13:39.476Z,14.69
2023-04-25T23:16:09.489Z,14.65
2023-04-25T23:18:39.134Z,14.60
2023-04-25T23:21:09.322Z,14.59
2023-04-25T23:23:40.004Z,14.45
2023-04-25T23:26:09.845Z,14.48
2023-04-25T23:28:41.505Z,14.42
2023-04-25T23:31:12.231Z,14.37
2023-04-25T23:33:40.998Z,14.25
2023-04-25T23:36:18.090Z,14.16
2023-04-25T23:38:48.492Z,14.10
2023-04-25T23:41:18.213Z,14.00
2023-04-25T23:43:46.933Z,13.92
2023-04-25T23:46:15.753Z,13.92
2023-04-25T23:48:44.424Z,13.79
2023-04-25T23:51:13.038Z,13.76
2023-04-25T23:53:41.774Z,13.71
2023-04-25T23:56:11.975Z,13.65
2023-04-25T23:58:40.590Z,13.58
